createdAt,value
2018-01-21T00:01:22.056Z,2.30
2018-01-21T00:03:50.411Z,2.30
2018-01-21T00:06:18.022Z,2.30
2018-01-21T00:08:45.609Z,2.30
2018-01-21T00:11:13.186Z,2.30
2018-01-21T00:13:40.822Z,2.30
2018-01-21T00:16:09.147Z,2.30
2018-01-21T00:18:37.474Z,2.20
2018-01-21T00:21:05.899Z,2.20
2018-01-21T00:23:33.783Z,2.20
2018-01-21T00:26:02.138Z,2.20
2018-01-21T00:28:29.753Z,2.20
2018-01-21T00:30:57.372Z,2.20
2018-01-21T00:33:24.947Z,2.20
2018-01-21T00:35:52.674Z,2.20
2018-01-21T00:38:21.085Z,2.20
2018-01-21T00:40:48.642Z,2.30
2018-01-21T00:43:16.239Z,2.20
2018-01-21T00:45:43.798Z,2.20
2018-01-21T00:48:11.469Z,2.20
2018-01-21T00:50:39.820Z,2.20
2018-01-21T00:53:07.409Z,2.20
2018-01-21T00:55:35.753Z,2.20
2018-01-21T00:58:03.487Z,2.20
2018-01-21T01:00:31.194Z,2.30
2018-01-21T01:02:58.742Z,2.20
2018-01-21T01:05:26.926Z,2.20
2018-01-21T01:07:54.485Z,2.30
2018-01-21T01:10:22.046Z,2.30
2018-01-21T01:12:49.788Z,2.30
2018-01-21T01:15:17.469Z,2.30
2018-01-21T01:17:45.823Z,2.30
2018-01-21T01:20:13.636Z,2.30
2018-01-21T01:22:41.191Z,2.30
2018-01-21T01:25:10.421Z,2.10
2018-01-21T01:27:38.812Z,2.20
2018-01-21T01:30:06.376Z,2.10
2018-01-21T01:32:34.509Z,2.10
2018-01-21T01:35:02.123Z,2.10
2018-01-21T01:37:29.717Z,2.20
2018-01-21T01:39:57.423Z,2.20
2018-01-21T01:42:26.660Z,2.00
2018-01-21T01:44:54.250Z,2.00
2018-01-21T01:47:21.827Z,2.00
2018-01-21T01:49:49.430Z,1.90
2018-01-21T01:52:17.009Z,1.90
2018-01-21T01:54:45.340Z,1.80
2018-01-21T01:57:13.713Z,1.90
2018-01-21T01:59:41.369Z,1.90
2018-01-21T02:02:09.917Z,1.90
2018-01-21T02:04:37.685Z,1.80
2018-01-21T02:07:05.252Z,1.80
2018-01-21T02:09:32.884Z,1.80
2018-01-21T02:12:00.488Z,1.80
2018-01-21T02:14:28.062Z,1.80
2018-01-21T02:16:55.622Z,1.80
2018-01-21T02:19:23.231Z,1.70
2018-01-21T02:21:50.815Z,1.80
2018-01-21T02:24:18.373Z,1.70
2018-01-21T02:26:46.385Z,1.80
2018-01-21T02:29:14.730Z,1.80
2018-01-21T02:31:42.472Z,1.80
2018-01-21T02:34:10.072Z,1.70
2018-01-21T02:36:37.649Z,1.70
2018-01-21T02:39:05.983Z,1.70
2018-01-21T02:41:34.003Z,1.70
2018-01-21T02:44:02.331Z,1.70
2018-01-21T02:46:29.922Z,1.60
2018-01-21T02:48:57.565Z,1.70
2018-01-21T02:51:25.405Z,1.60
2018-01-21T02:53:52.990Z,1.70
2018-01-21T02:56:20.592Z,1.70
2018-01-21T02:58:49.510Z,1.70
2018-01-21T03:01:17.087Z,1.60
2018-01-21T03:03:44.705Z,1.60
2018-01-21T03:06:12.296Z,1.70
2018-01-21T03:08:39.886Z,1.70
2018-01-21T03:11:07.770Z,1.70
2018-01-21T03:13:35.346Z,1.70
2018-01-21T03:16:04.602Z,1.80
2018-01-21T03:18:32.230Z,1.70
2018-01-21T03:21:01.183Z,1.80
2018-01-21T03:23:28.761Z,1.70
2018-01-21T03:25:57.164Z,1.70
2018-01-21T03:28:24.867Z,1.70
2018-01-21T03:30:52.808Z,1.70
2018-01-21T03:33:20.622Z,1.70
2018-01-21T03:35:48.195Z,1.80
2018-01-21T03:38:15.778Z,1.70
2018-01-21T03:40:44.450Z,1.80
2018-01-21T03:43:12.275Z,1.70
2018-01-21T03:45:39.851Z,1.80
2018-01-21T03:48:07.459Z,1.80
2018-01-21T03:50:35.038Z,1.80
2018-01-21T03:53:03.537Z,1.80
2018-01-21T03:55:31.461Z,1.80
2018-01-21T03:57:59.806Z,1.80
2018-01-21T04:00:27.391Z,1.80
2018-01-21T04:02:56.084Z,1.80
2018-01-21T04:05:24.515Z,1.80
2018-01-21T04:07:52.098Z,1.80
2018-01-21T04:10:19.688Z,1.80
2018-01-21T04:12:48.055Z,1.80
2018-01-21T04:15:15.634Z,1.80
2018-01-21T04:17:44.327Z,1.80
2018-01-21T04:20:12.668Z,1.80
2018-01-21T04:22:40.260Z,1.80
2018-01-21T04:25:08.794Z,1.80
2018-01-21T04:27:36.367Z,1.80
2018-01-21T04:30:04.228Z,1.80
2018-01-21T04:32:31.839Z,1.80
2018-01-21T04:34:59.449Z,1.80
2018-01-21T04:37:27.033Z,1.80
2018-01-21T04:39:54.941Z,1.80
2018-01-21T04:42:22.506Z,1.80
2018-01-21T04:44:50.189Z,1.80
2018-01-21T04:47:17.780Z,1.80
2018-01-21T04:49:45.351Z,1.80
2018-01-21T04:52:13.837Z,1.80
2018-01-21T04:54:41.675Z,1.80
2018-01-21T04:57:09.773Z,1.80
2018-01-21T04:59:37.354Z,1.70
2018-01-21T05:02:05.918Z,1.70
2018-01-21T05:04:33.492Z,1.70
2018-01-21T05:07:01.987Z,1.80
2018-01-21T05:09:30.360Z,1.80
2018-01-21T05:11:57.942Z,1.80
2018-01-21T05:14:26.169Z,1.80
2018-01-21T05:16:53.823Z,1.80
2018-01-21T05:19:22.197Z,1.80
2018-01-21T05:21:49.766Z,1.80
2018-01-21T05:24:17.657Z,1.80
2018-01-21T05:26:46.010Z,1.80
2018-01-21T05:29:13.583Z,1.80
2018-01-21T05:31:41.445Z,1.70
2018-01-21T05:34:09.024Z,1.80
2018-01-21T05:36:36.623Z,1.70
2018-01-21T05:39:04.223Z,1.80
2018-01-21T05:41:31.814Z,1.70
2018-01-21T05:44:00.388Z,1.70
2018-01-21T05:46:29.012Z,1.70
2018-01-21T05:48:56.601Z,1.70
2018-01-21T05:51:24.159Z,1.80
2018-01-21T05:53:51.755Z,1.70
2018-01-21T05:56:19.965Z,1.70
2018-01-21T05:58:48.125Z,1.70
2018-01-21T06:01:15.846Z,1.70
2018-01-21T06:03:43.411Z,1.70
2018-01-21T06:06:10.997Z,1.70
2018-01-21T06:08:39.681Z,1.70
2018-01-21T06:11:08.015Z,1.70
2018-01-21T06:13:35.602Z,1.70
2018-01-21T06:16:03.212Z,1.70
2018-01-21T06:18:30.770Z,1.70
2018-01-21T06:20:58.336Z,1.70
2018-01-21T06:23:26.699Z,1.70
2018-01-21T06:25:54.293Z,1.70
2018-01-21T06:28:22.226Z,1.70
2018-01-21T06:30:49.945Z,1.70
2018-01-21T06:33:17.595Z,1.80
2018-01-21T06:35:45.181Z,1.80
2018-01-21T06:38:12.942Z,1.80
2018-01-21T06:40:41.351Z,1.80
2018-01-21T06:43:09.705Z,1.80
2018-01-21T06:45:38.158Z,1.80
2018-01-21T06:48:05.759Z,1.80
2018-01-21T06:50:33.339Z,1.90
2018-01-21T06:53:01.317Z,1.80
2018-01-21T06:55:28.910Z,1.90
2018-01-21T06:57:56.537Z,1.90
2018-01-21T07:00:24.143Z,1.90
2018-01-21T07:02:51.725Z,1.90
2018-01-21T07:05:19.415Z,2.00
2018-01-21T07:07:47.816Z,2.00
2018-01-21T07:10:15.920Z,1.90
2018-01-21T07:12:44.228Z,1.90
2018-01-21T07:15:11.854Z,1.90
2018-01-21T07:17:39.476Z,1.90
2018-01-21T07:20:07.056Z,2.00
2018-01-21T07:22:35.825Z,2.00
2018-01-21T07:25:03.422Z,2.00
2018-01-21T07:27:31.781Z,2.00
2018-01-21T07:29:59.377Z,2.00
2018-01-21T07:32:26.992Z,2.00
2018-01-21T07:34:55.435Z,2.00
2018-01-21T07:37:23.347Z,2.00
2018-01-21T07:39:50.953Z,2.00
2018-01-21T07:42:18.536Z,2.00
2018-01-21T07:44:46.126Z,2.00
2018-01-21T07:47:14.548Z,2.00
2018-01-21T07:49:42.269Z,2.00
2018-01-21T07:52:10.633Z,2.10
2018-01-21T07:54:38.255Z,2.10
2018-01-21T07:57:06.573Z,2.10
2018-01-21T07:59:34.542Z,2.10
2018-01-21T08:02:02.863Z,2.00
2018-01-21T08:04:30.437Z,2.10
2018-01-21T08:06:58.042Z,2.00
2018-01-21T08:09:26.396Z,2.10
2018-01-21T08:11:54.442Z,2.00
2018-01-21T08:14:22.031Z,2.00
2018-01-21T08:16:49.608Z,2.00
2018-01-21T08:19:17.167Z,2.10
2018-01-21T08:21:44.792Z,2.10
2018-01-21T08:24:12.370Z,2.10
2018-01-21T08:26:39.940Z,2.10
2018-01-21T08:29:07.550Z,2.10
2018-01-21T08:31:35.721Z,2.10
2018-01-21T08:34:09.143Z,2.10
2018-01-21T08:36:42.547Z,2.10
2018-01-21T08:39:15.944Z,2.10
2018-01-21T08:41:46.774Z,2.10
2018-01-21T08:44:14.362Z,2.10
2018-01-21T08:46:41.972Z,2.10
2018-01-21T08:49:10.355Z,2.10
2018-01-21T08:51:38.940Z,2.20
2018-01-21T08:54:06.738Z,2.20
2018-01-21T08:56:34.313Z,2.20
2018-01-21T08:59:02.659Z,2.30
2018-01-21T09:18:55.310Z,2.30
2018-01-21T09:21:22.920Z,2.30
2018-01-21T09:23:50.867Z,2.30
2018-01-21T09:26:19.382Z,2.40
2018-01-21T09:28:46.969Z,2.30
2018-01-21T09:31:15.351Z,2.30
2018-01-21T09:33:42.932Z,2.30
2018-01-21T09:36:10.837Z,2.30
2018-01-21T09:38:38.480Z,2.30
2018-01-21T09:41:06.070Z,2.30
2018-01-21T09:43:33.651Z,2.30
2018-01-21T09:46:01.444Z,2.30
2018-01-21T09:48:29.021Z,2.30
2018-01-21T09:50:56.577Z,2.30
2018-01-21T09:53:24.383Z,2.30
2018-01-21T09:55:51.963Z,2.30
2018-01-21T09:58:20.286Z,2.30
2018-01-21T10:00:47.974Z,2.40
2018-01-21T10:03:15.918Z,2.30
2018-01-21T10:05:43.693Z,2.40
2018-01-21T10:08:11.624Z,2.40
2018-01-21T10:10:39.950Z,2.50
2018-01-21T10:13:07.802Z,2.50
2018-01-21T10:15:35.388Z,2.50
2018-01-21T10:18:02.962Z,2.50
2018-01-21T10:20:30.534Z,2.40
2018-01-21T10:22:58.997Z,2.40
2018-01-21T10:25:27.150Z,2.50
2018-01-21T10:27:54.730Z,2.50
2018-01-21T10:30:22.621Z,2.40
2018-01-21T10:32:50.193Z,2.50
2018-01-21T10:35:17.769Z,2.50
2018-01-21T10:37:45.568Z,2.40
2018-01-21T10:40:13.153Z,2.40
2018-01-21T10:42:40.744Z,2.40
2018-01-21T10:45:09.172Z,2.40
2018-01-21T10:47:37.544Z,2.40
2018-01-21T10:50:05.116Z,2.40
2018-01-21T10:52:32.925Z,2.30
2018-01-21T10:55:01.447Z,2.40
2018-01-21T10:57:29.013Z,2.40
2018-01-21T10:59:56.590Z,2.50
2018-01-21T11:02:24.162Z,2.50
2018-01-21T11:04:51.742Z,2.60
2018-01-21T11:07:20.183Z,2.60
2018-01-21T11:09:47.754Z,2.60
2018-01-21T11:12:16.870Z,2.50
2018-01-21T11:14:45.969Z,2.50
2018-01-21T11:17:13.526Z,2.50
2018-01-21T11:19:41.110Z,2.60
2018-01-21T11:22:08.709Z,2.60
2018-01-21T11:24:36.287Z,2.50
2018-01-21T11:27:03.871Z,2.50
2018-01-21T11:29:32.126Z,2.60
2018-01-21T11:32:00.591Z,2.60
2018-01-21T11:34:28.875Z,2.60
2018-01-21T11:36:56.663Z,2.50
2018-01-21T11:39:24.550Z,2.60
2018-01-21T11:41:52.598Z,2.60
2018-01-21T11:44:20.212Z,2.60
2018-01-21T11:46:48.381Z,2.60
2018-01-21T11:49:16.714Z,2.50
2018-01-21T11:51:44.662Z,2.50
2018-01-21T11:54:12.252Z,2.60
2018-01-21T11:56:40.258Z,2.60
2018-01-21T11:59:08.641Z,2.50
2018-01-21T12:01:36.208Z,2.50
2018-01-21T12:04:04.667Z,2.50
2018-01-21T12:06:33.545Z,2.60
2018-01-21T12:09:01.122Z,2.60
2018-01-21T12:11:28.695Z,2.60
2018-01-21T12:13:57.810Z,2.50
2018-01-21T12:16:25.793Z,2.50
2018-01-21T12:18:53.400Z,2.50
2018-01-21T12:21:21.015Z,2.60
2018-01-21T12:23:48.586Z,2.60
2018-01-21T12:26:16.166Z,2.60
2018-01-21T12:28:43.904Z,2.50
2018-01-21T12:31:12.555Z,2.50
2018-01-21T12:33:40.119Z,2.50
2018-01-21T12:36:07.703Z,2.40
2018-01-21T12:38:35.253Z,2.50
2018-01-21T12:41:03.123Z,2.50
2018-01-21T12:43:30.731Z,2.50
2018-01-21T12:45:58.294Z,2.50
2018-01-21T12:48:25.859Z,2.50
2018-01-21T12:50:53.473Z,2.60
2018-01-21T12:53:21.097Z,2.50
2018-01-21T12:55:49.466Z,2.50
2018-01-21T12:58:17.513Z,2.50
2018-01-21T13:00:45.275Z,2.50
2018-01-21T13:03:13.874Z,2.50
2018-01-21T13:05:42.343Z,2.60
2018-01-21T13:08:10.251Z,2.60
2018-01-21T13:10:37.866Z,2.60
2018-01-21T13:13:05.483Z,2.70
2018-01-21T13:15:33.818Z,2.80
2018-01-21T13:18:01.430Z,2.80
2018-01-21T13:20:29.051Z,2.80
2018-01-21T13:22:56.641Z,2.80
2018-01-21T13:25:24.249Z,2.80
2018-01-21T13:27:52.250Z,2.90
2018-01-21T13:30:19.831Z,2.90
2018-01-21T13:32:48.203Z,2.90
2018-01-21T13:35:15.855Z,2.90
2018-01-21T13:37:43.442Z,2.90
2018-01-21T13:40:11.762Z,3.00
2018-01-21T13:42:40.057Z,3.00
2018-01-21T13:45:07.640Z,3.00
2018-01-21T13:47:35.985Z,3.00
2018-01-21T13:50:03.597Z,3.00
2018-01-21T13:52:31.924Z,2.90
2018-01-21T13:54:59.509Z,2.90
2018-01-21T13:57:27.119Z,2.80
2018-01-21T13:59:55.023Z,2.80
2018-01-21T14:02:23.404Z,2.80
2018-01-21T14:04:51.006Z,2.90
2018-01-21T14:07:19.326Z,2.80
2018-01-21T14:09:46.900Z,2.80
2018-01-21T14:12:14.509Z,2.80
2018-01-21T14:14:42.842Z,2.90
2018-01-21T14:17:10.393Z,2.80
2018-01-21T14:19:38.385Z,2.90
2018-01-21T14:22:05.972Z,2.80
2018-01-21T14:24:34.309Z,2.80
2018-01-21T14:27:01.892Z,2.80
2018-01-21T14:29:29.456Z,2.80
2018-01-21T14:31:57.023Z,2.80
2018-01-21T14:34:24.637Z,2.80
2018-01-21T14:36:53.086Z,2.80
2018-01-21T14:39:21.431Z,2.80
2018-01-21T14:41:49.793Z,2.80
2018-01-21T14:44:17.444Z,2.80
2018-01-21T14:46:45.000Z,2.80
2018-01-21T14:49:12.608Z,2.80
2018-01-21T14:51:40.966Z,2.80
2018-01-21T14:54:08.541Z,2.80
2018-01-21T14:56:36.921Z,2.90
2018-01-21T14:59:05.251Z,2.80
2018-01-21T15:01:33.114Z,2.80
2018-01-21T15:04:01.649Z,2.80
2018-01-21T15:06:29.250Z,2.70
2018-01-21T15:08:56.808Z,2.70
2018-01-21T15:11:24.423Z,2.70
2018-01-21T15:13:51.992Z,2.70
2018-01-21T15:16:21.075Z,2.60
2018-01-21T15:18:48.662Z,2.60
2018-01-21T15:21:16.383Z,2.60
2018-01-21T15:23:43.970Z,2.60
2018-01-21T15:26:11.558Z,2.60
2018-01-21T15:28:39.893Z,2.50
2018-01-21T15:31:08.130Z,2.50
2018-01-21T15:33:35.746Z,2.50
2018-01-21T15:36:03.319Z,2.40
2018-01-21T15:38:30.904Z,2.50
2018-01-21T15:40:59.291Z,2.50
2018-01-21T15:43:26.852Z,2.40
2018-01-21T15:45:54.574Z,2.50
2018-01-21T15:48:22.198Z,2.40
2018-01-21T15:50:49.773Z,2.40
2018-01-21T15:53:17.433Z,2.40
2018-01-21T15:55:45.038Z,2.50
2018-01-21T15:58:13.368Z,2.40
2018-01-21T16:00:40.958Z,2.40
2018-01-21T16:03:08.916Z,2.40
2018-01-21T16:05:36.510Z,2.40
2018-01-21T16:08:04.090Z,2.40
2018-01-21T16:10:31.697Z,2.40
2018-01-21T16:12:59.275Z,2.40
2018-01-21T16:15:26.854Z,2.30
2018-01-21T16:17:55.242Z,2.40
2018-01-21T16:20:22.824Z,2.40
2018-01-21T16:22:50.618Z,2.40
2018-01-21T16:25:18.757Z,2.40
2018-01-21T16:27:46.336Z,2.40
2018-01-21T16:30:13.905Z,2.40
2018-01-21T16:32:41.507Z,2.30
2018-01-21T16:35:09.098Z,2.40
2018-01-21T16:37:48.717Z,2.30
2018-01-21T16:40:17.052Z,2.20
2018-01-21T16:42:44.660Z,2.20
2018-01-21T16:45:13.315Z,2.20
2018-01-21T16:47:41.059Z,2.20
2018-01-21T16:50:08.666Z,2.20
2018-01-21T16:52:36.279Z,2.10
2018-01-21T16:55:03.853Z,2.20
2018-01-21T16:57:32.087Z,2.20
2018-01-21T16:59:59.778Z,2.20
2018-01-21T17:02:27.437Z,2.20
2018-01-21T17:04:55.096Z,2.20
2018-01-21T17:07:22.687Z,2.20
2018-01-21T17:09:50.271Z,2.20
2018-01-21T17:12:18.603Z,2.20
2018-01-21T17:14:46.186Z,2.20
2018-01-21T17:17:13.777Z,2.20
2018-01-21T17:19:41.495Z,2.10
2018-01-21T17:22:09.279Z,2.10
2018-01-21T17:24:37.578Z,2.10
2018-01-21T17:27:05.137Z,2.10
2018-01-21T17:29:32.877Z,2.10
2018-01-21T17:32:00.462Z,2.20
2018-01-21T17:34:28.034Z,2.10
2018-01-21T17:36:55.632Z,2.10
2018-01-21T17:39:23.222Z,2.20
2018-01-21T17:41:50.783Z,2.10
2018-01-21T17:44:18.674Z,2.10
2018-01-21T17:46:46.878Z,2.10
2018-01-21T17:49:14.569Z,2.10
2018-01-21T17:51:42.733Z,2.10
2018-01-21T17:54:10.323Z,2.10
2018-01-21T17:56:38.598Z,2.10
2018-01-21T17:59:06.204Z,2.10
2018-01-21T18:01:34.831Z,2.00
2018-01-21T18:04:02.387Z,2.00
2018-01-21T18:06:30.128Z,2.10
2018-01-21T18:08:57.699Z,2.10
2018-01-21T18:11:25.266Z,2.10
2018-01-21T18:13:52.864Z,2.10
2018-01-21T18:16:20.450Z,2.20
2018-01-21T18:18:48.066Z,2.10
2018-01-21T18:21:15.692Z,2.20
2018-01-21T18:23:43.272Z,2.10
2018-01-21T18:26:10.840Z,2.10
2018-01-21T18:28:38.448Z,2.10
2018-01-21T18:31:06.020Z,2.10
2018-01-21T18:33:34.353Z,2.00
2018-01-21T18:36:01.947Z,1.90
2018-01-21T18:38:31.097Z,1.90
2018-01-21T18:41:00.514Z,1.80
2018-01-21T18:43:28.951Z,1.90
2018-01-21T18:45:57.989Z,1.80
2018-01-21T18:48:25.675Z,1.80
2018-01-21T18:50:53.312Z,1.80
2018-01-21T18:53:21.100Z,1.80
2018-01-21T18:55:49.076Z,1.80
2018-01-21T18:58:16.913Z,1.80
2018-01-21T19:00:44.878Z,1.80
2018-01-21T19:03:13.304Z,1.70
2018-01-21T19:05:42.154Z,1.70
2018-01-21T19:08:09.952Z,1.70
2018-01-21T19:10:38.818Z,1.70
2018-01-21T19:13:07.610Z,1.70
2018-01-21T19:15:35.211Z,1.70
2018-01-21T19:18:03.971Z,1.60
2018-01-21T19:20:32.065Z,1.60
2018-01-21T19:23:00.651Z,1.60
2018-01-21T19:25:29.005Z,1.60
2018-01-21T19:27:57.897Z,1.50
2018-01-21T19:30:27.362Z,1.60
2018-01-21T19:32:55.272Z,1.60
2018-01-21T19:35:24.420Z,1.40
2018-01-21T19:37:52.327Z,1.40
2018-01-21T19:53:43.817Z,1.00
2018-01-21T19:56:12.142Z,1.10
2018-01-21T19:58:42.026Z,1.10
2018-01-21T20:01:10.705Z,1.10
2018-01-21T20:03:39.780Z,0.90
2018-01-21T20:06:09.181Z,0.90
2018-01-21T20:08:38.456Z,0.90
2018-01-21T20:11:06.771Z,0.90
2018-01-21T20:13:37.079Z,0.80
2018-01-21T20:16:05.938Z,0.80
2018-01-21T20:18:34.336Z,0.80
2018-01-21T20:21:02.866Z,0.80
2018-01-21T20:23:31.710Z,0.80
2018-01-21T20:26:00.716Z,0.70
2018-01-21T20:28:29.314Z,0.60
2018-01-21T20:30:58.190Z,0.70
2018-01-21T20:33:26.808Z,0.70
2018-01-21T20:35:55.402Z,0.70
2018-01-21T20:38:24.586Z,0.70
2018-01-21T20:40:54.033Z,0.70
2018-01-21T20:43:22.890Z,0.60
2018-01-21T20:45:52.427Z,0.60
2018-01-21T20:48:21.191Z,0.60
2018-01-21T20:50:50.758Z,0.60
2018-01-21T20:53:25.076Z,0.60
2018-01-21T20:55:53.422Z,0.50
2018-01-21T20:58:22.599Z,0.50
2018-01-21T21:00:52.025Z,0.40
2018-01-21T21:03:20.407Z,0.50
2018-01-21T21:05:48.339Z,0.50
2018-01-21T21:08:16.828Z,0.60
2018-01-21T21:10:45.510Z,0.40
2018-01-21T21:13:13.378Z,0.40
2018-01-21T21:15:42.911Z,0.40
2018-01-21T21:18:10.753Z,0.50
2018-01-21T21:20:38.618Z,0.50
2018-01-21T21:23:06.271Z,0.40
2018-01-21T21:25:33.839Z,0.40
2018-01-21T21:28:01.615Z,0.40
2018-01-21T21:30:29.232Z,0.40
2018-01-21T21:32:57.697Z,0.40
2018-01-21T21:35:25.300Z,0.40
2018-01-21T21:37:52.936Z,0.50
2018-01-21T21:40:24.273Z,0.40
2018-01-21T21:42:52.634Z,0.40
2018-01-21T21:45:20.242Z,0.40
2018-01-21T21:47:47.851Z,0.40
2018-01-21T21:50:15.419Z,0.40
2018-01-21T21:52:43.183Z,0.40
2018-01-21T21:55:10.761Z,0.30
2018-01-21T21:57:38.331Z,0.40
2018-01-21T22:00:06.719Z,0.30
2018-01-21T22:02:34.417Z,0.30
2018-01-21T22:05:02.884Z,0.30
2018-01-21T22:07:30.488Z,0.30
2018-01-21T22:09:58.063Z,0.30
2018-01-21T22:12:26.693Z,0.20
2018-01-21T22:14:54.324Z,0.20
2018-01-21T22:17:21.916Z,0.20
2018-01-21T22:19:49.498Z,0.20
2018-01-21T22:22:17.096Z,0.20
2018-01-21T22:24:44.671Z,0.20
2018-01-21T22:27:13.652Z,0.20
2018-01-21T22:29:41.385Z,0.20
2018-01-21T22:32:09.432Z,0.20
2018-01-21T22:34:37.004Z,0.20
2018-01-21T22:37:04.627Z,0.20
2018-01-21T22:39:32.232Z,0.20
2018-01-21T22:41:59.834Z,0.10
2018-01-21T22:44:27.446Z,0.10
2018-01-21T22:46:55.037Z,0.10
2018-01-21T22:49:22.667Z,0.20
2018-01-21T22:51:50.261Z,0.10
2018-01-21T22:54:17.996Z,0.10
2018-01-21T22:56:45.582Z,0.10
2018-01-21T22:59:22.963Z,0.00
2018-01-21T23:01:50.541Z,0.10
2018-01-21T23:04:18.136Z,0.10
2018-01-21T23:06:45.991Z,0.10
2018-01-21T23:09:14.427Z,0.10
2018-01-21T23:11:42.023Z,0.10
2018-01-21T23:14:10.707Z,0.00
2018-01-21T23:16:38.292Z,0.00
2018-01-21T23:19:05.916Z,0.00
2018-01-21T23:21:33.562Z,0.00
2018-01-21T23:24:01.155Z,0.00
2018-01-21T23:26:37.877Z,0.00
2018-01-21T23:29:08.519Z,0.00
2018-01-21T23:31:36.079Z,0.10
2018-01-21T23:34:03.681Z,0.10
2018-01-21T23:36:31.874Z,0.10
2018-01-21T23:38:59.445Z,0.10
2018-01-21T23:41:27.135Z,0.10
2018-01-21T23:43:54.746Z,0.10
2018-01-21T23:46:23.794Z,0.00
2018-01-21T23:48:51.484Z,0.00
2018-01-21T23:51:19.978Z,0.00
2018-01-21T23:53:47.563Z,0.00
2018-01-21T23:56:15.155Z,0.00
2018-01-21T23:58:42.768Z,0.00
